KLGC/LGC METAR and TAF weather

Enter ICAO airport designator
Station Type Date Time Source
KLGC METAR 2020/06/03 16:15 UTC NOAA

KLGC 031615Z AUTO 00000KT 10SM SCT030 28/19 A3008 RMK AO2 T02760186


Station Type Date Time Source
KLGC Decoded METAR 2020/06/03 16:15 UTC NOAA

La Grange, Callaway Airport, GA, United States (KLGC) 33-00-32N 085-04-21W
Jun 03, 2020 - 12:15 PM EDT / 2020.06.03 1615 UTC
Wind: Calm:0
Visibility: 10 mile(s):0
Sky conditions: partly cloudy
Temperature: 81.7 F (27.6 C)
Dew Point: 65.5 F (18.6 C)
Relative Humidity: 58%
Pressure (altimeter): 30.08 in. Hg (1018 hPa)
ob: KLGC 031615Z AUTO 00000KT 10SM SCT030 28/19 A3008 RMK AO2 T02760186
cycle: 16

Station Type Date Time Source
KLGC TAF UTC NOAA

Error!

Example: see airport list